Henderson, NC (27536)

12:47 PM EDT on July 02, 2015 (GMT -0400)
Gillburg | | Change Station
CLOSE
Current Station
Personal Weather Station
Location: Henderson, NC
Elevation: 434 ft
Nearby Weather Stations

Elev 434 ft 36.26 °N, 78.37 °W | Updated 11 seconds ago

Mostly Cloudy
Mostly Cloudy
82.5 °F
Feels Like 86 °F
N
1.2
Wind Variable Wind from WSW
Gusts 0.0 mph

Today
High -- | Low -- °F
--% Chance of Precip.
Yesterday
High -- | Low -- °F
Precip. -- in
5:59 AM 8:35 PM
Full, 100% visible
Pressure 29.92 in
Visibility 10.0 miles
Clouds Scattered Clouds 3500 ft
Scattered Clouds 4400 ft
Mostly Cloudy 6000 ft
Heat Index 86 °F
Dew Point 70 °F
Humidity 66%
Rainfall 0.00 in
Snow Depth Not available.
UV 6 out of 12
Pollen 2.20 out of 12
Air Quality Not available.
Flu Activity Not available.
METAR KHNZ 021628Z AUTO 25008KT 10SM SCT035 SCT044 BKN060 28/18 A2992 RMK AO2

More Conditions Fewer Conditions

Pressure 29.92 in
Visibility 10.0 miles
Clouds Scattered Clouds 3500 ft
Scattered Clouds 4400 ft
Mostly Cloudy 6000 ft
Heat Index 86 °F
Dew Point 70 °F
Humidity 66%
Rainfall 0.00 in
Snow Depth Not available.
UV 6 out of 12
Pollen 2.20 out of 12
Air Quality Not available.
Flu Activity Not available.
METAR KHNZ 021628Z AUTO 25008KT 10SM SCT035 SCT044 BKN060 28/18 A2992 RMK AO2

More Conditions Fewer Conditions

10-Day Weather Forecast

×

Almanac

Astronomy

Jul. 02, 2015 Rise Set
Actual Time
Civil Twilight
Nautical Twilight
Astronomical Twilight
Moon
Length of Visible Light
Length of Day
Tomorrow will be .
, % of the Moon is Illuminated

Today's Extremes

State Highs State Lows

Community

WunderPhotos

Upload Photos

1,834,498 photos uploaded!

WunderBlogs® & News

Nearby

Air Quality

  Air Quality AQ Index Pollutant
Not available.

Snow Depth

Station Depth Elevation

Earthquake Activity

City Distance Mag. Time & Date
Minimum magnitude displayed is 2.5.

Coastal Water Temperatures

Place Temperature

Stations

Nearby Weather Stations

Station Location Temp. Windchill Dew Point Humidity Wind Precip. Elev Updated Type